createdAt,value
2022-11-09T00:01:32.765Z,5.55
2022-11-09T00:04:06.889Z,5.78
2022-11-09T00:06:37.898Z,6.32
2022-11-09T00:09:09.815Z,5.82
2022-11-09T00:11:40.242Z,5.32
2022-11-09T00:14:09.997Z,5.55
2022-11-09T00:16:39.767Z,5.93
2022-11-09T00:19:13.240Z,5.55
2022-11-09T00:21:43.134Z,5.20
2022-11-09T00:24:13.455Z,5.55
2022-11-09T00:26:43.223Z,5.53
2022-11-09T00:29:13.272Z,4.80
2022-11-09T00:31:43.310Z,5.00
2022-11-09T00:34:15.697Z,4.75
2022-11-09T00:36:45.474Z,4.72
2022-11-09T00:39:15.263Z,5.15
2022-11-09T00:41:45.076Z,5.13
2022-11-09T00:44:15.026Z,5.07
2022-11-09T00:46:44.825Z,4.90
2022-11-09T00:49:17.229Z,4.88
2022-11-09T00:51:46.978Z,5.45
2022-11-09T00:54:17.607Z,5.32
2022-11-09T00:56:47.366Z,5.18
2022-11-09T00:59:17.334Z,5.25
2022-11-09T01:01:47.118Z,5.28
2022-11-09T01:04:19.541Z,5.53
2022-11-09T01:06:49.385Z,5.75
2022-11-09T01:09:19.219Z,5.40
2022-11-09T01:11:49.013Z,5.70
2022-11-09T01:14:18.957Z,5.75
2022-11-09T01:16:48.736Z,5.75
2022-11-09T01:19:21.083Z,5.63
2022-11-09T01:21:50.864Z,6.60
2022-11-09T01:24:20.630Z,6.75
2022-11-09T01:26:51.018Z,6.45
2022-11-09T01:29:20.784Z,7.47
2022-11-09T01:31:51.472Z,6.40
2022-11-09T01:34:23.981Z,6.95
2022-11-09T01:36:54.169Z,6.75
2022-11-09T01:39:24.377Z,6.80
2022-11-09T01:41:54.225Z,6.55
2022-11-09T01:44:24.160Z,6.30
2022-11-09T01:46:57.579Z,7.00
2022-11-09T01:49:41.035Z,5.80
2022-11-09T01:52:14.045Z,6.30
2022-11-09T01:54:46.715Z,6.32
2022-11-09T01:57:21.941Z,6.28
2022-11-09T01:59:57.407Z,6.25
2022-11-09T02:02:27.489Z,6.15
2022-11-09T02:05:03.645Z,5.85
2022-11-09T02:07:33.545Z,7.15
2022-11-09T02:10:09.704Z,6.72
2022-11-09T02:12:39.558Z,7.10
2022-11-09T02:15:12.135Z,6.95
2022-11-09T02:17:43.256Z,5.97
2022-11-09T02:20:17.794Z,5.93
2022-11-09T02:22:48.241Z,5.68
2022-11-09T02:25:19.043Z,6.10
2022-11-09T02:27:49.201Z,5.85
2022-11-09T02:30:22.071Z,5.10
2022-11-09T02:32:51.867Z,5.63
2022-11-09T02:35:24.245Z,5.57
2022-11-09T02:37:54.109Z,5.18
2022-11-09T02:40:29.041Z,4.80
2022-11-09T02:43:00.013Z,5.28
2022-11-09T02:45:30.380Z,4.38
2022-11-09T02:48:00.184Z,3.58
2022-11-09T02:50:32.643Z,4.20
2022-11-09T02:53:02.445Z,3.65
2022-11-09T02:55:32.190Z,3.92
2022-11-09T02:58:02.248Z,4.07
2022-11-09T03:00:32.079Z,3.60
2022-11-09T03:03:01.846Z,3.75
2022-11-09T03:05:34.178Z,3.95
2022-11-09T03:08:04.789Z,4.13
2022-11-09T03:10:34.545Z,3.85
2022-11-09T03:13:04.337Z,4.40
2022-11-09T03:15:35.279Z,3.90
2022-11-09T03:18:05.060Z,4.32
2022-11-09T03:20:37.416Z,3.60
2022-11-09T03:23:07.332Z,4.28
2022-11-09T03:25:37.193Z,4.68
2022-11-09T03:28:09.045Z,4.15
2022-11-09T03:30:38.781Z,4.72
2022-11-09T03:33:12.630Z,4.80
2022-11-09T03:35:44.940Z,4.70
2022-11-09T03:38:14.808Z,4.80
2022-11-09T03:40:44.604Z,5.35
2022-11-09T03:43:14.320Z,5.05
2022-11-09T03:45:44.238Z,5.28
2022-11-09T03:48:14.030Z,5.93
2022-11-09T03:50:46.383Z,5.60
2022-11-09T03:53:16.417Z,6.45
2022-11-09T03:55:46.416Z,5.68
2022-11-09T03:58:16.116Z,6.25
2022-11-09T04:00:46.008Z,5.90
2022-11-09T04:03:15.785Z,6.13
2022-11-09T04:05:48.178Z,6.20
2022-11-09T04:08:17.930Z,5.93
2022-11-09T04:10:47.748Z,5.90
2022-11-09T04:13:17.882Z,5.95
2022-11-09T04:15:48.061Z,5.90
2022-11-09T04:18:19.050Z,5.68
2022-11-09T04:20:51.415Z,6.95
2022-11-09T04:23:21.505Z,6.30
2022-11-09T04:25:51.590Z,6.72
2022-11-09T04:28:21.781Z,6.50
2022-11-09T04:30:51.644Z,6.68
2022-11-09T04:33:21.784Z,6.03
2022-11-09T04:35:54.545Z,6.85
2022-11-09T04:38:24.293Z,6.88
2022-11-09T04:40:54.061Z,6.72
2022-11-09T04:43:23.993Z,6.95
2022-11-09T04:45:53.864Z,8.15
2022-11-09T04:48:23.961Z,7.60
2022-11-09T04:51:01.057Z,7.03
2022-11-09T04:53:31.326Z,7.22
2022-11-09T04:56:01.424Z,8.45
2022-11-09T04:58:31.176Z,8.80
2022-11-09T05:01:05.640Z,8.70
2022-11-09T05:06:28.120Z,9.05
2022-11-09T05:08:58.630Z,9.52
2022-11-09T05:11:28.487Z,9.38
2022-11-09T05:13:58.267Z,10.45
2022-11-09T05:16:28.260Z,8.85
2022-11-09T05:18:58.298Z,8.95
2022-11-09T05:21:30.745Z,8.98
2022-11-09T05:24:00.763Z,9.25
2022-11-09T05:26:32.359Z,9.55
2022-11-09T05:29:03.452Z,8.70
2022-11-09T05:31:33.400Z,9.20
2022-11-09T05:34:03.616Z,9.02
2022-11-09T05:36:36.242Z,8.70
2022-11-09T05:39:06.239Z,9.40
2022-11-09T05:41:36.028Z,7.70
2022-11-09T05:44:05.875Z,9.15
2022-11-09T05:46:35.754Z,8.18
2022-11-09T05:49:05.595Z,8.57
2022-11-09T05:51:37.948Z,8.52
2022-11-09T05:54:07.989Z,8.88
2022-11-09T05:56:37.765Z,8.55
2022-11-09T05:59:07.518Z,7.45
2022-11-09T06:01:37.405Z,8.40
2022-11-09T06:04:07.600Z,8.90
2022-11-09T06:06:39.971Z,9.00
2022-11-09T06:09:09.936Z,8.75
2022-11-09T06:11:39.713Z,9.52
2022-11-09T06:14:09.496Z,8.55
2022-11-09T06:16:39.576Z,8.27
2022-11-09T06:19:09.426Z,8.63
2022-11-09T06:21:41.733Z,8.27
2022-11-09T06:24:12.068Z,8.13
2022-11-09T06:26:41.878Z,7.93
2022-11-09T06:29:12.321Z,8.38
2022-11-09T06:31:43.078Z,8.18
2022-11-09T06:34:12.881Z,8.23
2022-11-09T06:36:45.355Z,8.00
2022-11-09T06:39:15.168Z,8.63
2022-11-09T06:41:47.597Z,9.00
2022-11-09T06:44:17.998Z,8.70
2022-11-09T06:46:47.944Z,8.88
2022-11-09T06:49:17.711Z,9.38
2022-11-09T06:51:50.393Z,10.05
2022-11-09T06:54:20.158Z,10.45
2022-11-09T06:56:50.474Z,10.32
2022-11-09T06:59:20.221Z,9.77
2022-11-09T07:01:50.132Z,9.20
2022-11-09T07:04:20.019Z,9.95
2022-11-09T07:06:52.377Z,10.60
2022-11-09T07:09:22.262Z,10.07
2022-11-09T07:11:52.088Z,11.02
2022-11-09T07:14:21.912Z,11.23
2022-11-09T07:16:51.725Z,10.27
2022-11-09T07:19:21.560Z,11.07
2022-11-09T07:21:53.975Z,10.85
2022-11-09T07:24:23.923Z,10.82
2022-11-09T07:26:53.789Z,11.30
2022-11-09T07:29:23.614Z,11.68
2022-11-09T07:31:53.455Z,12.35
2022-11-09T07:34:23.241Z,11.75
2022-11-09T07:36:56.202Z,11.48
2022-11-09T07:39:26.036Z,11.77
2022-11-09T07:41:56.332Z,12.25
2022-11-09T07:44:26.117Z,11.52
2022-11-09T07:46:56.033Z,12.57
2022-11-09T07:49:25.940Z,10.98
2022-11-09T07:51:58.358Z,10.80
2022-11-09T07:54:28.213Z,11.43
2022-11-09T07:56:58.001Z,10.82
2022-11-09T07:59:28.065Z,10.73
2022-11-09T08:01:57.886Z,11.50
2022-11-09T08:04:27.900Z,10.55
2022-11-09T08:07:00.537Z,10.32
2022-11-09T08:09:31.056Z,9.90
2022-11-09T08:12:00.868Z,8.75
2022-11-09T08:14:30.651Z,9.40
2022-11-09T08:17:00.382Z,12.55
2022-11-09T08:19:30.101Z,9.52
2022-11-09T08:22:03.011Z,9.30
2022-11-09T08:24:32.841Z,9.48
2022-11-09T08:27:02.605Z,9.52
2022-11-09T08:29:32.500Z,9.30
2022-11-09T08:32:02.343Z,9.52
2022-11-09T08:34:32.149Z,9.45
2022-11-09T08:37:05.451Z,8.60
2022-11-09T08:39:35.267Z,9.02
2022-11-09T08:42:05.014Z,9.45
2022-11-09T08:44:34.757Z,9.55
2022-11-09T08:47:04.584Z,9.80
2022-11-09T08:49:34.851Z,10.10
2022-11-09T08:52:07.570Z,10.07
2022-11-09T08:54:39.037Z,9.30
2022-11-09T08:57:08.873Z,9.27
2022-11-09T08:59:38.825Z,9.05
2022-11-09T09:02:08.889Z,8.27
2022-11-09T09:04:38.719Z,10.27
2022-11-09T09:07:11.487Z,8.82
2022-11-09T09:09:41.536Z,10.80
2022-11-09T09:12:12.398Z,10.80
2022-11-09T09:14:42.178Z,9.70
2022-11-09T09:17:12.906Z,9.80
2022-11-09T09:19:47.315Z,9.98
2022-11-09T09:22:22.451Z,9.15
2022-11-09T09:24:52.304Z,7.85
2022-11-09T09:27:22.102Z,7.40
2022-11-09T09:29:51.980Z,7.95
2022-11-09T09:32:21.821Z,8.13
2022-11-09T09:34:51.641Z,8.32
2022-11-09T09:37:24.265Z,8.38
2022-11-09T09:39:54.056Z,8.88
2022-11-09T09:42:30.235Z,8.00
2022-11-09T09:45:05.029Z,7.60
2022-11-09T09:47:49.115Z,6.63
2022-11-09T09:50:24.234Z,6.13
2022-11-09T09:53:23.232Z,6.15
2022-11-09T09:55:57.739Z,6.88
2022-11-09T09:58:29.631Z,5.65
2022-11-09T10:01:07.512Z,6.43
2022-11-09T10:03:37.433Z,5.47
2022-11-09T10:06:18.934Z,5.25
2022-11-09T10:09:01.643Z,5.40
2022-11-09T10:11:39.324Z,5.07
2022-11-09T10:14:47.153Z,5.65
2022-11-09T10:17:28.511Z,4.85
2022-11-09T10:20:09.425Z,3.83
2022-11-09T10:22:51.212Z,5.00
2022-11-09T10:25:50.248Z,3.03
2022-11-09T10:28:20.212Z,3.45
2022-11-09T10:30:50.566Z,4.18
2022-11-09T10:33:23.194Z,3.60
2022-11-09T10:36:08.329Z,4.00
2022-11-09T10:38:42.976Z,3.97
2022-11-09T10:43:48.715Z,4.13
2022-11-09T10:46:18.664Z,4.15
2022-11-09T10:48:48.519Z,4.00
2022-11-09T10:51:35.919Z,3.40
2022-11-09T10:54:18.224Z,4.13
2022-11-09T10:57:05.410Z,4.25
2022-11-09T10:59:48.570Z,4.22
2022-11-09T11:02:44.131Z,4.13
2022-11-09T11:05:37.457Z,4.32
2022-11-09T11:08:23.730Z,4.53
2022-11-09T11:11:06.593Z,4.28
2022-11-09T11:13:45.566Z,4.55
2022-11-09T11:16:28.016Z,14.68
2022-11-09T11:18:58.087Z,5.05
2022-11-09T11:21:29.051Z,4.45
2022-11-09T11:24:25.899Z,4.20
2022-11-09T11:27:04.259Z,4.10
2022-11-09T11:29:45.943Z,4.82
2022-11-09T11:32:18.889Z,4.28
2022-11-09T11:35:05.301Z,4.20
2022-11-09T11:37:47.154Z,4.13
2022-11-09T11:40:23.151Z,4.25
2022-11-09T11:43:17.785Z,3.80
2022-11-09T11:45:56.715Z,4.05
2022-11-09T11:48:58.822Z,4.50
2022-11-09T11:51:37.411Z,6.20
2022-11-09T11:54:17.245Z,5.70
2022-11-09T11:56:51.484Z,4.57
2022-11-09T11:59:48.908Z,4.93
2022-11-09T12:02:50.763Z,4.18
2022-11-09T12:05:55.842Z,4.57
2022-11-09T12:08:31.623Z,4.07
2022-11-09T12:11:10.190Z,4.13
2022-11-09T12:14:00.413Z,3.90
2022-11-09T12:16:39.836Z,4.07
2022-11-09T12:19:35.923Z,4.22
2022-11-09T12:22:13.187Z,4.00
2022-11-09T12:24:50.194Z,4.28
2022-11-09T12:27:41.366Z,4.95
2022-11-09T12:30:17.853Z,4.47
2022-11-09T12:32:53.686Z,5.50
2022-11-09T12:35:34.974Z,6.50
2022-11-09T12:38:07.866Z,5.97
2022-11-09T12:40:42.149Z,4.95
2022-11-09T12:43:19.617Z,5.95
2022-11-09T12:45:52.710Z,5.90
2022-11-09T12:48:26.810Z,5.15
2022-11-09T12:51:00.818Z,4.97
2022-11-09T12:53:33.227Z,5.05
2022-11-09T12:56:05.598Z,4.13
2022-11-09T12:58:38.071Z,4.72
2022-11-09T13:01:09.780Z,4.78
2022-11-09T13:03:43.195Z,4.63
2022-11-09T13:06:22.357Z,5.20
2022-11-09T13:09:04.696Z,4.50
2022-11-09T13:11:40.598Z,4.43
2022-11-09T13:14:38.605Z,5.03
2022-11-09T13:17:38.542Z,5.45
2022-11-09T13:20:54.659Z,5.88
2022-11-09T13:24:02.209Z,7.18
2022-11-09T13:27:04.171Z,6.00
2022-11-09T13:29:56.432Z,5.60
2022-11-09T13:32:28.650Z,5.53
2022-11-09T13:34:59.683Z,5.20
2022-11-09T13:37:57.781Z,4.10
2022-11-09T13:40:51.566Z,3.80
2022-11-09T13:43:27.714Z,3.25
2022-11-09T13:45:59.920Z,3.58
2022-11-09T13:48:43.481Z,3.58
2022-11-09T13:51:16.150Z,3.85
2022-11-09T13:53:57.857Z,3.50
2022-11-09T13:56:37.492Z,3.90
2022-11-09T13:59:15.895Z,4.18
2022-11-09T14:01:50.535Z,4.45
2022-11-09T14:04:25.550Z,3.90
2022-11-09T14:07:05.353Z,5.10
2022-11-09T14:09:44.356Z,4.95
2022-11-09T14:12:29.041Z,4.53
2022-11-09T14:15:12.045Z,4.65
2022-11-09T14:17:51.325Z,4.20
2022-11-09T14:20:29.844Z,3.72
2022-11-09T14:22:59.652Z,7.80
2022-11-09T14:25:30.974Z,4.72
2022-11-09T14:28:03.336Z,4.35
2022-11-09T14:30:34.443Z,4.90
2022-11-09T14:33:04.169Z,4.20
2022-11-09T14:35:35.162Z,4.88
2022-11-09T14:38:17.925Z,4.60
2022-11-09T14:40:49.708Z,5.32
2022-11-09T14:43:29.216Z,5.22
2022-11-09T14:46:01.092Z,5.22
2022-11-09T14:48:33.067Z,6.30
2022-11-09T14:51:05.681Z,5.75
2022-11-09T14:53:38.838Z,5.82
2022-11-09T14:56:10.788Z,6.57
2022-11-09T14:58:45.863Z,7.18
2022-11-09T15:01:24.713Z,5.97
2022-11-09T15:04:12.684Z,8.07
2022-11-09T15:06:51.204Z,7.22
2022-11-09T15:09:24.150Z,7.65
2022-11-09T15:11:54.552Z,8.20
2022-11-09T15:14:31.602Z,8.88
2022-11-09T15:17:06.605Z,6.97
2022-11-09T15:19:41.057Z,6.70
2022-11-09T15:22:43.134Z,7.28
2022-11-09T15:25:25.735Z,11.00
2022-11-09T15:28:05.459Z,8.15
2022-11-09T15:30:45.617Z,6.00
2022-11-09T15:33:24.367Z,7.53
2022-11-09T15:35:56.401Z,7.97
2022-11-09T15:38:39.041Z,6.78
2022-11-09T15:41:16.937Z,6.35
2022-11-09T15:43:47.432Z,6.43
2022-11-09T15:46:22.974Z,7.70
2022-11-09T15:48:52.934Z,6.82
2022-11-09T15:51:23.183Z,7.55
2022-11-09T15:53:52.988Z,9.02
2022-11-09T15:56:25.079Z,8.85
2022-11-09T15:58:54.881Z,9.48
2022-11-09T16:01:27.557Z,8.68
2022-11-09T16:03:57.385Z,9.20
2022-11-09T16:06:27.428Z,9.57
2022-11-09T16:08:57.338Z,9.65
2022-11-09T16:11:27.120Z,10.23
2022-11-09T16:13:56.907Z,9.52
2022-11-09T16:16:29.538Z,9.00
2022-11-09T16:19:00.030Z,10.15
2022-11-09T16:21:29.844Z,9.95
2022-11-09T16:23:59.637Z,9.45
2022-11-09T16:26:30.159Z,9.20
2022-11-09T16:28:59.941Z,10.15
2022-11-09T16:31:50.978Z,7.65
2022-11-09T16:34:22.040Z,6.90
2022-11-09T16:36:56.819Z,5.85
2022-11-09T16:39:28.749Z,5.15
2022-11-09T16:41:58.655Z,5.32
2022-11-09T16:44:28.492Z,5.68
2022-11-09T16:47:00.914Z,6.82
2022-11-09T16:49:30.674Z,7.15
2022-11-09T16:52:00.574Z,8.23
2022-11-09T16:54:30.364Z,8.90
2022-11-09T16:57:00.419Z,9.77
2022-11-09T16:59:30.200Z,9.77
2022-11-09T17:02:03.031Z,9.43
2022-11-09T17:04:32.901Z,9.82
2022-11-09T17:07:02.855Z,8.73
2022-11-09T17:09:36.143Z,8.77
2022-11-09T17:12:07.296Z,9.30
2022-11-09T17:14:37.099Z,8.48
2022-11-09T17:17:09.436Z,10.20
2022-11-09T17:19:39.321Z,9.00
2022-11-09T17:22:09.078Z,8.82
2022-11-09T17:24:38.884Z,9.73
2022-11-09T17:27:10.651Z,9.68
2022-11-09T17:29:41.104Z,9.07
2022-11-09T17:32:13.707Z,9.25
2022-11-09T17:34:43.587Z,9.80
2022-11-09T17:37:13.340Z,8.90
2022-11-09T17:39:43.067Z,8.63
2022-11-09T17:42:12.817Z,9.27
2022-11-09T17:44:42.584Z,8.40
2022-11-09T17:47:15.028Z,9.13
2022-11-09T17:49:44.858Z,8.10
2022-11-09T17:52:14.611Z,8.52
2022-11-09T17:54:44.394Z,8.90
2022-11-09T17:57:14.387Z,9.15
2022-11-09T17:59:44.116Z,7.85
2022-11-09T18:02:18.549Z,7.75
2022-11-09T18:07:18.236Z,8.18
2022-11-09T18:09:48.033Z,7.00
2022-11-09T18:12:17.774Z,8.55
2022-11-09T18:14:47.543Z,10.85
2022-11-09T18:17:19.867Z,7.82
2022-11-09T18:19:49.633Z,7.85
2022-11-09T18:22:19.373Z,7.18
2022-11-09T18:24:49.128Z,6.93
2022-11-09T18:27:18.868Z,5.22
2022-11-09T18:29:48.612Z,5.20
2022-11-09T18:32:20.972Z,4.40
2022-11-09T18:34:50.797Z,5.05
2022-11-09T18:37:20.594Z,4.13
2022-11-09T18:39:50.373Z,3.50
2022-11-09T18:42:20.332Z,3.85
2022-11-09T18:44:50.052Z,3.95
2022-11-09T18:47:23.714Z,4.18
2022-11-09T18:49:53.567Z,3.78
2022-11-09T18:52:23.476Z,4.03
2022-11-09T18:54:53.244Z,4.50
2022-11-09T18:57:23.113Z,5.10
2022-11-09T18:59:52.897Z,4.82
2022-11-09T19:02:25.233Z,5.95
2022-11-09T19:04:55.076Z,5.93
2022-11-09T19:07:24.883Z,5.95
2022-11-09T19:09:56.711Z,5.70
2022-11-09T19:12:26.914Z,5.75
2022-11-09T19:14:56.709Z,5.22
2022-11-09T19:17:29.107Z,7.00
2022-11-09T19:19:58.865Z,4.70
2022-11-09T19:22:29.186Z,5.05
2022-11-09T19:24:58.906Z,4.85
2022-11-09T19:27:28.946Z,5.63
2022-11-09T19:29:58.692Z,5.50
2022-11-09T19:32:31.055Z,5.82
2022-11-09T19:35:00.827Z,5.55
2022-11-09T19:37:30.658Z,5.03
2022-11-09T19:40:00.498Z,5.97
2022-11-09T19:42:30.262Z,5.90
2022-11-09T19:45:00.058Z,5.88
2022-11-09T19:47:32.392Z,6.00
2022-11-09T19:50:02.153Z,5.47
2022-11-09T19:52:31.887Z,5.20
2022-11-09T19:55:02.247Z,5.85
2022-11-09T19:57:32.219Z,6.15
2022-11-09T20:00:01.953Z,6.68
2022-11-09T20:02:34.500Z,6.15
2022-11-09T20:05:04.250Z,5.65
2022-11-09T20:07:35.223Z,4.95
2022-11-09T20:10:06.649Z,4.50
2022-11-09T20:12:49.022Z,4.82
2022-11-09T20:15:19.355Z,4.60
2022-11-09T20:17:51.741Z,5.63
2022-11-09T20:20:21.656Z,4.20
2022-11-09T20:22:51.761Z,3.80
2022-11-09T20:25:21.539Z,2.80
2022-11-09T20:27:51.379Z,2.97
2022-11-09T20:30:21.681Z,2.90
2022-11-09T20:32:54.005Z,3.10
2022-11-09T20:35:23.788Z,2.88
2022-11-09T20:37:53.792Z,3.47
2022-11-09T20:40:23.559Z,3.40
2022-11-09T20:42:53.326Z,2.60
2022-11-09T20:45:23.097Z,2.38
2022-11-09T20:48:10.568Z,3.10
2022-11-09T20:50:45.510Z,5.30
2022-11-09T20:53:15.881Z,3.78
2022-11-09T20:55:45.860Z,2.88
2022-11-09T20:58:16.495Z,3.70
2022-11-09T21:00:46.265Z,2.50
2022-11-09T21:03:18.683Z,6.50
2022-11-09T21:05:51.717Z,5.03
2022-11-09T21:08:24.474Z,4.18
2022-11-09T21:10:54.854Z,3.90
2022-11-09T21:13:25.290Z,3.50
2022-11-09T21:15:55.060Z,5.90
2022-11-09T21:18:27.419Z,2.90
2022-11-09T21:20:57.224Z,3.08
2022-11-09T21:23:39.461Z,3.70
2022-11-09T21:26:24.331Z,4.32
2022-11-09T21:29:06.574Z,3.08
2022-11-09T21:31:36.420Z,2.55
2022-11-09T21:34:08.769Z,2.53
2022-11-09T21:36:38.498Z,3.58
2022-11-09T21:39:08.361Z,3.60
2022-11-09T21:41:40.755Z,4.75
2022-11-09T21:44:12.172Z,3.58
2022-11-09T21:46:43.868Z,4.95
2022-11-09T21:49:16.688Z,4.00
2022-11-09T21:51:46.479Z,3.60
2022-11-09T21:54:16.296Z,3.22
2022-11-09T21:56:46.322Z,3.30
2022-11-09T21:59:16.285Z,2.90
2022-11-09T22:01:46.738Z,3.17
2022-11-09T22:04:19.414Z,3.15
2022-11-09T22:06:49.381Z,2.90
2022-11-09T22:09:20.969Z,3.15
2022-11-09T22:12:03.288Z,4.03
2022-11-09T22:14:45.567Z,3.33
2022-11-09T22:17:15.558Z,3.10
2022-11-09T22:20:00.391Z,3.22
2022-11-09T22:25:00.661Z,3.45
2022-11-09T22:27:32.549Z,3.45
2022-11-09T22:30:02.393Z,3.67
2022-11-09T22:32:32.196Z,3.38
2022-11-09T22:35:04.604Z,3.00
2022-11-09T22:37:34.356Z,3.45
2022-11-09T22:40:04.079Z,4.05
2022-11-09T22:42:33.821Z,4.40
2022-11-09T22:45:03.580Z,4.00
2022-11-09T22:47:33.356Z,3.88
2022-11-09T22:50:06.055Z,3.83
2022-11-09T22:52:35.852Z,3.83
2022-11-09T22:55:05.799Z,3.85
2022-11-09T22:57:37.899Z,4.45
2022-11-09T23:00:10.814Z,4.53
2022-11-09T23:02:40.580Z,5.38
2022-11-09T23:05:13.177Z,5.78
2022-11-09T23:07:43.331Z,5.22
2022-11-09T23:10:13.202Z,5.07
2022-11-09T23:12:43.112Z,3.88
2022-11-09T23:15:13.377Z,3.83
2022-11-09T23:17:55.710Z,3.70
2022-11-09T23:20:35.338Z,3.55
2022-11-09T23:23:05.795Z,3.35
2022-11-09T23:25:48.057Z,3.47
2022-11-09T23:28:18.154Z,3.55
2022-11-09T23:30:48.014Z,3.60
2022-11-09T23:33:17.769Z,4.32
2022-11-09T23:35:50.182Z,4.30
2022-11-09T23:38:19.965Z,3.85
2022-11-09T23:40:49.819Z,4.30
2022-11-09T23:43:19.899Z,4.32
2022-11-09T23:45:50.021Z,3.70
2022-11-09T23:48:22.046Z,3.15
2022-11-09T23:50:54.398Z,3.80
2022-11-09T23:53:24.529Z,3.38
2022-11-09T23:55:54.594Z,3.47
2022-11-09T23:58:24.359Z,3.88
